createdAt,value
2018-06-02T00:02:02.990Z,2.87
2018-06-02T00:04:30.471Z,3.22
2018-06-02T00:06:57.898Z,3.37
2018-06-02T00:09:25.411Z,3.00
2018-06-02T00:11:52.834Z,2.80
2018-06-02T00:14:20.359Z,2.72
2018-06-02T00:16:47.782Z,3.12
2018-06-02T00:19:15.965Z,2.72
2018-06-02T00:21:43.395Z,3.08
2018-06-02T00:24:10.815Z,2.87
2018-06-02T00:26:39.015Z,3.08
2018-06-02T00:29:06.497Z,3.03
2018-06-02T00:31:33.914Z,2.80
2018-06-02T00:34:01.338Z,3.30
2018-06-02T00:36:28.810Z,3.05
2018-06-02T00:38:56.275Z,3.50
2018-06-02T00:41:23.690Z,3.58
2018-06-02T00:43:51.222Z,3.12
2018-06-02T00:46:18.694Z,3.12
2018-06-02T00:48:46.109Z,3.60
2018-06-02T00:51:13.538Z,3.45
2018-06-02T00:53:40.963Z,3.60
2018-06-02T00:56:09.182Z,3.47
2018-06-02T00:58:36.650Z,3.53
2018-06-02T01:01:04.119Z,3.30
2018-06-02T01:03:31.587Z,3.50
2018-06-02T01:05:59.002Z,3.03
2018-06-02T01:08:26.530Z,3.35
2018-06-02T01:10:54.002Z,3.30
2018-06-02T01:13:21.572Z,2.85
2018-06-02T01:15:49.763Z,3.20
2018-06-02T01:18:17.234Z,3.00
2018-06-02T01:20:44.673Z,3.33
2018-06-02T01:23:12.895Z,3.30
2018-06-02T01:25:40.354Z,4.22
2018-06-02T01:28:07.769Z,3.53
2018-06-02T01:30:35.291Z,3.80
2018-06-02T01:33:02.773Z,4.00
2018-06-02T01:35:30.198Z,4.00
2018-06-02T01:37:57.618Z,3.87
2018-06-02T01:40:25.072Z,3.85
2018-06-02T01:42:52.494Z,4.62
2018-06-02T01:45:21.426Z,4.10
2018-06-02T01:47:49.609Z,4.57
2018-06-02T01:50:17.797Z,4.43
2018-06-02T01:52:45.990Z,4.93
2018-06-02T01:55:14.183Z,4.50
2018-06-02T01:57:41.663Z,4.20
2018-06-02T02:00:10.002Z,5.07
2018-06-02T02:02:37.522Z,4.20
2018-06-02T02:05:04.951Z,4.97
2018-06-02T02:07:32.374Z,4.47
2018-06-02T02:09:59.802Z,4.32
2018-06-02T02:12:27.993Z,4.53
2018-06-02T02:14:56.185Z,4.22
2018-06-02T02:17:24.370Z,4.20
2018-06-02T02:19:52.569Z,3.92
2018-06-02T02:22:19.991Z,4.20
2018-06-02T02:24:47.409Z,4.53
2018-06-02T02:27:14.838Z,3.83
2018-06-02T02:29:43.800Z,4.03
2018-06-02T02:32:11.221Z,4.22
2018-06-02T02:34:38.735Z,4.12
2018-06-02T02:37:06.161Z,4.20
2018-06-02T02:39:34.590Z,4.45
2018-06-02T02:42:02.071Z,4.22
2018-06-02T02:44:29.482Z,4.78
2018-06-02T02:46:57.006Z,4.03
2018-06-02T02:49:24.475Z,4.20
2018-06-02T02:51:51.905Z,4.00
2018-06-02T02:54:20.089Z,3.70
2018-06-02T02:56:48.287Z,3.97
2018-06-02T02:59:15.702Z,4.07
2018-06-02T03:01:43.254Z,3.92
2018-06-02T03:04:10.725Z,4.07
2018-06-02T03:06:38.204Z,4.37
2018-06-02T03:09:05.628Z,4.60
2018-06-02T03:11:33.234Z,4.65
2018-06-02T03:14:00.706Z,4.28
2018-06-02T03:16:28.130Z,4.25
2018-06-02T03:18:55.646Z,4.05
2018-06-02T03:21:23.122Z,3.78
2018-06-02T03:23:50.586Z,3.90
2018-06-02T03:26:18.057Z,4.00
2018-06-02T03:28:45.532Z,4.28
2018-06-02T03:31:12.996Z,3.85
2018-06-02T03:33:40.471Z,3.62
2018-06-02T03:36:07.907Z,4.18
2018-06-02T03:38:36.119Z,4.05
2018-06-02T03:41:03.542Z,3.78
2018-06-02T03:43:32.478Z,4.50
2018-06-02T03:46:00.669Z,3.97
2018-06-02T03:48:28.086Z,4.18
2018-06-02T03:50:55.626Z,3.75
2018-06-02T03:53:23.091Z,3.90
2018-06-02T03:55:50.519Z,3.70
2018-06-02T03:58:18.032Z,3.78
2018-06-02T04:00:45.460Z,3.78
2018-06-02T04:03:12.892Z,3.25
2018-06-02T04:05:40.334Z,4.20
2018-06-02T04:08:07.758Z,3.70
2018-06-02T04:10:35.276Z,3.75
2018-06-02T04:13:02.754Z,3.78
2018-06-02T04:15:30.214Z,3.60
2018-06-02T04:17:57.694Z,3.58
2018-06-02T04:20:25.124Z,2.95
2018-06-02T04:22:52.631Z,3.28
2018-06-02T04:25:20.046Z,3.55
2018-06-02T04:27:48.247Z,3.55
2018-06-02T04:30:16.431Z,3.62
2018-06-02T04:32:45.358Z,3.75
2018-06-02T04:35:13.542Z,3.17
2018-06-02T04:37:41.755Z,2.62
2018-06-02T04:40:09.219Z,2.78
2018-06-02T04:42:36.647Z,2.97
2018-06-02T04:45:04.875Z,3.35
2018-06-02T04:47:32.302Z,2.62
2018-06-02T04:50:00.671Z,3.15
2018-06-02T04:52:28.206Z,3.33
2018-06-02T04:54:55.623Z,2.72
2018-06-02T04:57:23.863Z,3.50
2018-06-02T04:59:51.283Z,3.42
2018-06-02T05:02:18.712Z,3.45
2018-06-02T05:04:46.126Z,3.33
2018-06-02T05:07:13.555Z,3.20
2018-06-02T05:09:40.970Z,3.15
2018-06-02T05:12:08.397Z,2.90
2018-06-02T05:14:35.853Z,3.03
2018-06-02T05:17:03.276Z,3.53
2018-06-02T05:19:31.927Z,3.47
2018-06-02T05:21:59.389Z,3.62
2018-06-02T05:24:27.579Z,4.43
2018-06-02T05:26:55.046Z,3.50
2018-06-02T05:29:22.465Z,4.45
2018-06-02T05:31:49.991Z,5.60
2018-06-02T05:34:17.846Z,5.15
2018-06-02T05:36:46.050Z,5.78
2018-06-02T05:39:13.471Z,6.03
2018-06-02T05:41:41.100Z,5.80
2018-06-02T05:44:08.569Z,5.53
2018-06-02T05:46:35.990Z,5.20
2018-06-02T05:49:04.943Z,4.85
2018-06-02T05:51:32.366Z,5.50
2018-06-02T05:53:59.878Z,5.70
2018-06-02T05:56:27.302Z,5.97
2018-06-02T05:58:54.742Z,5.68
2018-06-02T06:01:22.179Z,6.43
2018-06-02T06:03:49.654Z,5.90
2018-06-02T06:06:17.086Z,5.35
2018-06-02T06:08:44.515Z,5.55
2018-06-02T06:11:11.964Z,5.15
2018-06-02T06:13:39.385Z,6.03
2018-06-02T06:16:07.583Z,6.05
2018-06-02T06:18:35.004Z,6.15
2018-06-02T06:21:02.463Z,6.12
2018-06-02T06:23:29.882Z,5.97
2018-06-02T06:25:57.310Z,5.60
2018-06-02T06:28:24.730Z,5.22
2018-06-02T06:30:52.926Z,5.93
2018-06-02T06:33:21.123Z,6.25
2018-06-02T06:35:48.616Z,6.70
2018-06-02T06:38:16.074Z,6.95
2018-06-02T06:40:43.494Z,6.18
2018-06-02T06:43:10.923Z,6.55
2018-06-02T06:45:38.343Z,6.53
2018-06-02T06:48:05.860Z,6.20
2018-06-02T06:50:33.329Z,7.03
2018-06-02T06:53:00.794Z,6.35
2018-06-02T06:55:28.214Z,6.80
2018-06-02T06:57:55.646Z,6.95
2018-06-02T07:00:23.063Z,6.05
2018-06-02T07:02:50.581Z,7.00
2018-06-02T07:05:18.000Z,6.15
2018-06-02T07:07:45.510Z,6.25
2018-06-02T07:10:12.982Z,6.10
2018-06-02T07:12:40.406Z,5.75
2018-06-02T07:15:07.827Z,5.57
2018-06-02T07:17:35.249Z,5.65
2018-06-02T07:20:02.670Z,4.80
2018-06-02T07:22:30.094Z,4.93
2018-06-02T07:24:58.280Z,6.87
2018-06-02T07:27:26.477Z,6.25
2018-06-02T07:29:54.658Z,6.37
2018-06-02T07:32:22.860Z,6.15
2018-06-02T07:34:51.039Z,6.22
2018-06-02T07:37:19.259Z,6.25
2018-06-02T07:39:46.727Z,6.30
2018-06-02T07:42:14.158Z,7.20
2018-06-02T07:44:42.418Z,6.57
2018-06-02T07:47:09.947Z,7.05
2018-06-02T07:49:37.361Z,6.22
2018-06-02T07:52:04.789Z,6.95
2018-06-02T07:54:32.211Z,6.55
2018-06-02T07:56:59.690Z,7.10
2018-06-02T07:59:27.913Z,6.87
2018-06-02T08:01:55.378Z,7.30
2018-06-02T08:04:22.853Z,8.10
2018-06-02T08:06:50.282Z,6.45
2018-06-02T08:09:17.795Z,8.15
2018-06-02T08:11:45.265Z,8.20
2018-06-02T08:14:12.685Z,7.07
2018-06-02T08:16:40.108Z,7.28
2018-06-02T08:19:07.526Z,8.20
2018-06-02T08:21:34.959Z,7.62
2018-06-02T08:24:02.406Z,8.25
2018-06-02T08:26:29.838Z,7.37
2018-06-02T08:28:57.263Z,8.13
2018-06-02T08:31:24.695Z,8.07
2018-06-02T08:33:52.880Z,8.90
2018-06-02T08:36:21.074Z,8.85
2018-06-02T08:38:48.562Z,8.43
2018-06-02T08:41:15.978Z,7.75
2018-06-02T08:43:43.419Z,7.60
2018-06-02T08:46:10.869Z,7.30
2018-06-02T08:48:38.291Z,6.22
2018-06-02T08:51:05.805Z,7.22
2018-06-02T08:53:33.230Z,6.82
2018-06-02T08:56:00.746Z,6.57
2018-06-02T08:58:28.218Z,6.57
2018-06-02T09:00:55.638Z,7.07
2018-06-02T09:03:24.588Z,6.68
2018-06-02T09:05:52.786Z,5.93
2018-06-02T09:08:20.245Z,5.05
2018-06-02T09:10:48.430Z,5.57
2018-06-02T09:13:15.898Z,5.72
2018-06-02T09:15:43.374Z,5.87
2018-06-02T09:18:10.839Z,6.25
2018-06-02T09:20:38.265Z,5.18
2018-06-02T09:23:05.779Z,4.45
2018-06-02T09:25:33.197Z,4.80
2018-06-02T09:28:00.728Z,3.80
2018-06-02T09:30:28.141Z,5.53
2018-06-02T09:32:55.662Z,4.50
2018-06-02T09:35:23.130Z,4.50
2018-06-02T09:37:50.608Z,4.30
2018-06-02T09:40:18.022Z,4.30
2018-06-02T09:42:46.259Z,3.67
2018-06-02T09:45:13.730Z,4.15
2018-06-02T09:47:41.412Z,4.07
2018-06-02T09:50:08.813Z,4.15
2018-06-02T09:52:36.347Z,3.70
2018-06-02T09:55:03.766Z,4.10
2018-06-02T09:57:31.193Z,4.28
2018-06-02T09:59:58.615Z,3.20
2018-06-02T10:02:26.806Z,3.60
2018-06-02T10:04:55.025Z,3.25
2018-06-02T10:07:22.457Z,3.28
2018-06-02T10:09:50.885Z,2.92
2018-06-02T10:12:18.315Z,3.50
2018-06-02T10:14:45.822Z,3.08
2018-06-02T10:17:13.294Z,3.33
2018-06-02T10:19:40.714Z,3.08
2018-06-02T10:22:08.138Z,2.72
2018-06-02T10:24:35.704Z,3.12
2018-06-02T10:27:03.170Z,2.55
2018-06-02T10:29:30.699Z,2.83
2018-06-02T10:31:58.118Z,3.25
2018-06-02T10:34:25.583Z,2.80
2018-06-02T10:36:53.010Z,3.25
2018-06-02T10:39:20.451Z,3.25
2018-06-02T10:41:47.890Z,3.08
2018-06-02T10:44:15.326Z,3.00
2018-06-02T10:46:42.835Z,2.80
2018-06-02T10:49:10.303Z,2.17
2018-06-02T10:51:37.719Z,2.67
2018-06-02T10:54:05.150Z,2.70
2018-06-02T10:56:32.566Z,3.03
2018-06-02T10:59:00.086Z,2.50
2018-06-02T11:01:27.555Z,2.55
2018-06-02T11:03:54.987Z,2.42
2018-06-02T11:06:23.203Z,2.37
2018-06-02T11:08:50.626Z,2.17
2018-06-02T11:11:18.042Z,2.00
2018-06-02T11:13:45.474Z,2.50
2018-06-02T11:16:12.982Z,2.90
2018-06-02T11:18:40.410Z,2.75
2018-06-02T11:21:07.919Z,2.42
2018-06-02T11:23:35.390Z,2.80
2018-06-02T11:26:02.810Z,2.60
2018-06-02T11:28:30.241Z,2.53
2018-06-02T11:30:57.698Z,2.58
2018-06-02T11:33:25.122Z,2.47
2018-06-02T11:35:52.580Z,2.40
2018-06-02T11:38:20.019Z,2.03
2018-06-02T11:40:47.423Z,1.95
2018-06-02T11:43:14.857Z,1.98
2018-06-02T11:45:42.274Z,1.80
2018-06-02T11:48:09.698Z,1.80
2018-06-02T11:50:37.150Z,1.87
2018-06-02T11:53:04.622Z,1.85
2018-06-02T11:55:32.090Z,1.80
2018-06-02T11:57:59.519Z,1.70
2018-06-02T12:00:27.699Z,1.37
2018-06-02T12:02:55.130Z,1.70
2018-06-02T12:05:22.542Z,1.62
2018-06-02T12:07:49.975Z,1.80
2018-06-02T12:10:17.423Z,1.90
2018-06-02T12:12:44.850Z,1.30
2018-06-02T12:15:12.271Z,1.60
2018-06-02T12:17:39.702Z,1.50
2018-06-02T12:20:08.947Z,1.70
2018-06-02T12:22:36.411Z,1.52
2018-06-02T12:25:03.830Z,1.65
2018-06-02T12:27:31.253Z,1.55
2018-06-02T12:29:58.674Z,1.40
2018-06-02T12:32:26.105Z,1.42
2018-06-02T12:34:53.521Z,1.30
2018-06-02T12:37:21.714Z,1.27
2018-06-02T12:39:49.934Z,1.23
2018-06-02T12:42:17.406Z,1.02
2018-06-02T12:44:44.825Z,1.30
2018-06-02T12:47:12.244Z,1.02
2018-06-02T12:49:39.672Z,1.40
2018-06-02T12:52:07.086Z,1.05
2018-06-02T12:54:34.510Z,1.45
2018-06-02T12:57:02.730Z,1.00
2018-06-02T12:59:30.852Z,1.10
2018-06-02T13:01:58.282Z,1.10
2018-06-02T13:04:25.755Z,1.20
2018-06-02T13:06:53.230Z,1.40
2018-06-02T13:09:20.670Z,1.20
2018-06-02T13:11:48.882Z,1.20
2018-06-02T13:14:16.359Z,1.05
2018-06-02T13:16:43.773Z,1.23
2018-06-02T13:19:11.204Z,0.93
2018-06-02T13:21:38.619Z,0.95
2018-06-02T13:24:06.819Z,0.73
2018-06-02T13:26:35.038Z,1.05
2018-06-02T13:29:02.462Z,1.20
2018-06-02T13:31:29.971Z,1.20
2018-06-02T13:33:57.443Z,1.23
2018-06-02T13:36:24.918Z,1.20
2018-06-02T13:38:52.343Z,1.33
2018-06-02T13:41:20.534Z,1.30
2018-06-02T13:43:47.968Z,1.30
2018-06-02T13:46:15.378Z,1.10
2018-06-02T13:48:43.600Z,1.27
2018-06-02T13:51:11.063Z,1.02
2018-06-02T13:53:38.486Z,1.20
2018-06-02T13:56:05.912Z,1.35
2018-06-02T13:58:33.338Z,1.30
2018-06-02T14:01:00.847Z,1.40
2018-06-02T14:03:28.271Z,1.35
2018-06-02T14:05:55.690Z,1.30
2018-06-02T14:08:23.146Z,1.20
2018-06-02T14:10:50.619Z,1.30
2018-06-02T14:13:18.087Z,0.93
2018-06-02T14:15:45.501Z,1.23
2018-06-02T14:18:13.695Z,1.83
2018-06-02T14:20:41.115Z,1.23
2018-06-02T14:23:08.537Z,1.45
2018-06-02T14:25:36.057Z,1.52
2018-06-02T14:28:03.482Z,0.82
2018-06-02T14:30:30.902Z,1.27
2018-06-02T14:32:58.342Z,1.12
2018-06-02T14:35:26.546Z,1.00
2018-06-02T14:37:54.017Z,1.25
2018-06-02T14:40:21.594Z,1.17
2018-06-02T14:42:49.066Z,1.40
2018-06-02T14:45:16.539Z,1.23
2018-06-02T14:47:43.954Z,1.23
2018-06-02T14:50:11.470Z,1.30
2018-06-02T14:52:38.892Z,1.10
2018-06-02T14:55:06.454Z,1.50
2018-06-02T14:57:33.824Z,1.12
2018-06-02T15:00:01.245Z,1.60
2018-06-02T15:02:28.663Z,1.27
2018-06-02T15:04:56.189Z,1.10
2018-06-02T15:07:23.606Z,1.00
2018-06-02T15:09:51.999Z,0.90
2018-06-02T15:12:19.423Z,1.10
2018-06-02T15:14:46.890Z,1.50
2018-06-02T15:17:14.314Z,1.33
2018-06-02T15:19:42.751Z,1.40
2018-06-02T15:22:10.166Z,1.55
2018-06-02T15:24:37.599Z,1.30
2018-06-02T15:27:05.058Z,1.00
2018-06-02T15:29:32.536Z,1.20
2018-06-02T15:31:59.945Z,1.50
2018-06-02T15:34:27.369Z,1.30
2018-06-02T15:36:54.834Z,1.20
2018-06-02T15:39:22.299Z,1.20
2018-06-02T15:41:49.713Z,1.05
2018-06-02T15:44:17.243Z,1.30
2018-06-02T15:46:44.667Z,1.62
2018-06-02T15:49:12.182Z,1.30
2018-06-02T15:51:39.654Z,1.10
2018-06-02T15:54:07.118Z,1.30
2018-06-02T15:56:34.533Z,1.30
2018-06-02T15:59:01.985Z,0.75
2018-06-02T16:01:29.435Z,0.88
2018-06-02T16:03:56.898Z,0.80
2018-06-02T16:06:24.322Z,0.90
2018-06-02T16:08:51.842Z,0.93
2018-06-02T16:11:19.308Z,1.05
2018-06-02T16:13:46.729Z,1.00
2018-06-02T16:16:14.247Z,4.35
2018-06-02T16:18:41.719Z,1.20
2018-06-02T16:21:09.186Z,1.42
2018-06-02T16:23:36.658Z,1.00
2018-06-02T16:26:04.130Z,1.45
2018-06-02T16:28:31.553Z,1.08
2018-06-02T16:30:59.066Z,0.95
2018-06-02T16:33:26.542Z,1.20
2018-06-02T16:35:53.958Z,1.12
2018-06-02T16:38:21.516Z,1.25
2018-06-02T16:40:49.026Z,1.00
2018-06-02T16:43:17.222Z,1.12
2018-06-02T16:45:44.642Z,1.35
2018-06-02T16:48:12.058Z,1.60
2018-06-02T16:50:39.486Z,2.05
2018-06-02T16:53:06.906Z,1.60
2018-06-02T16:55:34.392Z,1.40
2018-06-02T16:58:01.750Z,1.62
2018-06-02T17:00:29.170Z,1.30
2018-06-02T17:02:56.690Z,1.50
2018-06-02T17:05:24.118Z,1.48
2018-06-02T17:07:51.626Z,1.70
2018-06-02T17:10:19.059Z,1.73
2018-06-02T17:12:46.578Z,1.60
2018-06-02T17:15:14.039Z,1.83
2018-06-02T17:17:41.461Z,1.73
2018-06-02T17:20:08.947Z,1.52
2018-06-02T17:22:36.303Z,1.80
2018-06-02T17:25:03.735Z,1.90
2018-06-02T17:27:31.157Z,1.67
2018-06-02T17:29:59.354Z,1.50
2018-06-02T17:32:26.775Z,1.45
2018-06-02T17:34:54.222Z,1.65
2018-06-02T17:37:21.645Z,1.80
2018-06-02T17:39:49.838Z,2.08
2018-06-02T17:42:18.022Z,2.10
2018-06-02T17:44:46.218Z,1.95
2018-06-02T17:47:14.403Z,1.80
2018-06-02T17:49:42.758Z,1.83
2018-06-02T17:52:10.179Z,1.80
2018-06-02T17:54:37.603Z,1.85
2018-06-02T17:57:05.027Z,1.67
2018-06-02T17:59:32.449Z,1.70
2018-06-02T18:02:00.014Z,1.90
2018-06-02T18:04:27.394Z,2.30
2018-06-02T18:06:54.817Z,1.95
2018-06-02T18:09:22.243Z,1.70
2018-06-02T18:11:50.430Z,2.10
2018-06-02T18:14:18.643Z,1.60
2018-06-02T18:16:46.062Z,1.52
2018-06-02T18:19:13.490Z,1.67
2018-06-02T18:21:40.913Z,1.85
2018-06-02T18:24:08.334Z,1.55
2018-06-02T18:26:35.755Z,1.60
2018-06-02T18:29:03.942Z,1.80
2018-06-02T18:31:32.159Z,2.05
2018-06-02T18:33:59.583Z,2.10
2018-06-02T18:36:27.102Z,1.80
2018-06-02T18:38:54.575Z,2.50
2018-06-02T18:41:22.052Z,2.42
2018-06-02T18:43:49.473Z,2.28
2018-06-02T18:46:16.886Z,2.37
2018-06-02T18:48:44.318Z,2.37
2018-06-02T18:51:12.535Z,2.12
2018-06-02T18:53:40.740Z,3.12
2018-06-02T18:56:08.141Z,4.80
2018-06-02T18:58:35.562Z,2.85
2018-06-02T19:01:03.052Z,2.75
2018-06-02T19:03:30.507Z,2.62
2018-06-02T19:05:57.930Z,2.85
2018-06-02T19:08:25.439Z,2.95
2018-06-02T19:10:53.690Z,2.72
2018-06-02T19:13:21.117Z,3.00
2018-06-02T19:15:48.538Z,2.45
2018-06-02T19:29:21.035Z,3.00
2018-06-02T19:31:49.154Z,2.60
2018-06-02T19:34:17.268Z,2.83
2018-06-02T19:36:45.474Z,2.87
2018-06-02T19:39:13.630Z,3.22
2018-06-02T19:41:41.802Z,2.92
2018-06-02T19:44:09.903Z,2.70
2018-06-02T19:46:37.990Z,3.02
2018-06-02T19:49:06.167Z,2.83
2018-06-02T19:51:34.343Z,2.75
2018-06-02T19:54:02.547Z,2.95
2018-06-02T19:56:30.722Z,3.12
2018-06-02T19:58:58.798Z,3.15
2018-06-02T20:01:26.965Z,3.90
2018-06-02T20:03:55.071Z,4.00
2018-06-02T20:06:23.167Z,4.00
2018-06-02T20:08:51.345Z,3.00
2018-06-02T20:11:19.447Z,3.08
2018-06-02T20:13:47.623Z,3.17
2018-06-02T20:16:15.815Z,3.05
2018-06-02T20:18:43.989Z,2.90
2018-06-02T20:21:12.078Z,2.65
2018-06-02T20:23:40.159Z,2.83
2018-06-02T20:26:08.245Z,3.22
2018-06-02T20:28:36.435Z,3.22
2018-06-02T20:31:04.530Z,3.30
2018-06-02T20:33:32.702Z,3.10
2018-06-02T20:36:00.791Z,3.22
2018-06-02T20:38:28.974Z,3.58
2018-06-02T20:40:57.070Z,3.30
2018-06-02T20:43:25.251Z,3.70
2018-06-02T20:45:53.450Z,3.52
2018-06-02T20:48:21.618Z,3.33
2018-06-02T20:50:49.711Z,3.90
2018-06-02T20:53:17.906Z,3.55
2018-06-02T20:55:45.973Z,3.40
2018-06-02T20:58:14.058Z,3.20
2018-06-02T21:00:42.299Z,3.42
2018-06-02T21:03:10.367Z,3.15
2018-06-02T21:05:38.524Z,3.37
2018-06-02T21:08:06.711Z,2.98
2018-06-02T21:10:34.894Z,3.47
2018-06-02T21:13:03.085Z,2.92
2018-06-02T21:15:31.266Z,3.45
2018-06-02T21:17:59.346Z,3.60
2018-06-02T21:20:27.570Z,3.25
2018-06-02T21:22:55.718Z,3.22
2018-06-02T21:25:23.822Z,3.37
2018-06-02T21:27:52.026Z,3.52
2018-06-02T21:30:20.186Z,2.95
2018-06-02T21:32:48.357Z,2.98
2018-06-02T21:35:16.456Z,3.20
2018-06-02T21:37:44.643Z,3.30
2018-06-02T21:40:13.754Z,3.27
2018-06-02T21:42:41.933Z,3.45
2018-06-02T21:45:10.023Z,3.22
2018-06-02T21:47:38.212Z,3.30
2018-06-02T21:50:06.422Z,3.37
2018-06-02T21:52:34.582Z,3.42
2018-06-02T21:55:02.665Z,3.40
2018-06-02T21:57:30.749Z,3.87
2018-06-02T21:59:59.874Z,3.58
2018-06-02T22:02:28.047Z,3.60
2018-06-02T22:04:56.239Z,3.60
2018-06-02T22:07:24.434Z,3.70
2018-06-02T22:09:53.546Z,3.33
2018-06-02T22:12:21.751Z,3.30
2018-06-02T22:14:49.898Z,3.42
2018-06-02T22:17:17.987Z,3.70
2018-06-02T22:19:46.191Z,3.50
2018-06-02T22:22:14.358Z,3.30
2018-06-02T22:24:42.534Z,3.80
2018-06-02T22:27:10.450Z,4.37
2018-06-02T22:29:39.627Z,3.45
2018-06-02T22:32:07.718Z,3.85
2018-06-02T22:34:35.903Z,3.85
2018-06-02T22:37:03.999Z,3.40
2018-06-02T22:39:33.086Z,3.90
2018-06-02T22:42:01.194Z,4.25
2018-06-02T22:44:29.371Z,3.75
2018-06-02T22:46:57.454Z,3.95
2018-06-02T22:49:25.534Z,3.72
2018-06-02T22:51:59.191Z,3.70
2018-06-02T22:54:27.680Z,3.70
2018-06-02T22:56:55.949Z,3.85
2018-06-02T22:59:24.402Z,3.72
2018-06-02T23:01:52.537Z,3.47
2018-06-02T23:04:20.699Z,4.10
2018-06-02T23:06:48.879Z,3.45
2018-06-02T23:09:16.952Z,3.50
2018-06-02T23:11:45.077Z,4.03
2018-06-02T23:14:13.242Z,4.20
2018-06-02T23:16:41.321Z,3.87
2018-06-02T23:19:09.418Z,3.87
2018-06-02T23:21:37.618Z,4.35
2018-06-02T23:24:05.786Z,4.83
2018-06-02T23:26:33.978Z,4.85
2018-06-02T23:29:02.157Z,5.20
2018-06-02T23:31:30.237Z,4.55
2018-06-02T23:33:58.340Z,3.80
2018-06-02T23:36:26.507Z,4.08
2018-06-02T23:38:54.603Z,4.50
2018-06-02T23:41:22.782Z,3.70
2018-06-02T23:43:50.879Z,3.83
2018-06-02T23:46:18.943Z,3.98
2018-06-02T23:48:47.047Z,3.90
2018-06-02T23:51:15.222Z,4.00
2018-06-02T23:53:43.315Z,3.85
2018-06-02T23:56:11.500Z,4.30
2018-06-02T23:58:39.687Z,4.10
